Time;durP1;ratioP1;P1;durP2;ratioP2;P2;SDS_P1;SDS_P2;PMS_P1;PMS_P2;Temp;Humidity;BMP_temperature;BMP_pressure;BME280_temperature;BME280_humidity;BME280_pressure;Samples;Min_cycle;Max_cycle;Signal;HPM_P1;HPM_P2
2023/06/02 00:02:15;;;;;;;8.90;3.92;;;;;;;20.47;44.06;100061.88;4964462;28;97423;-79
2023/06/02 00:04:41;;;;;;;9.20;4.00;;;;;;;20.43;44.58;100056.94;4948198;28;96825;-78
2023/06/02 00:07:07;;;;;;;8.82;4.57;;;;;;;20.35;44.15;100058.38;4952826;28;98087;-77
2023/06/02 00:09:41;;;;;;;11.88;4.57;;;;;;;20.38;44.25;100057.28;4930455;28;101689;-77
2023/06/02 00:12:07;;;;;;;10.95;4.20;;;;;;;20.33;44.50;100064.78;4928844;28;97175;-78
2023/06/02 00:14:34;;;;;;;13.02;4.50;;;;;;;20.19;44.46;100046.38;4929166;28;97009;-77
2023/06/02 00:17:03;;;;;;;8.57;4.00;;;;;;;20.23;44.63;100061.19;4965201;28;97732;-79
2023/06/02 00:19:32;;;;;;;11.48;5.13;;;;;;;20.12;45.01;100059.34;4941128;28;101503;-78
2023/06/02 00:22:00;;;;;;;8.27;4.32;;;;;;;20.09;45.12;100064.91;4930401;28;97609;-79
2023/06/02 00:24:25;;;;;;;8.50;4.60;;;;;;;20.13;45.14;100069.88;4940654;28;96885;-78
2023/06/02 00:26:51;;;;;;;12.25;4.35;;;;;;;20.09;45.27;100067.56;4963393;28;101490;-78
2023/06/02 00:29:16;;;;;;;8.93;4.10;;;;;;;20.03;45.49;100068.91;4932066;28;100987;-78
2023/06/02 00:31:42;;;;;;;8.95;4.40;;;;;;;20.04;45.53;100067.94;4967816;28;96791;-78
2023/06/02 00:34:07;;;;;;;9.13;4.57;;;;;;;20.04;45.51;100069.75;4967742;28;97364;-78
2023/06/02 00:36:33;;;;;;;10.02;4.88;;;;;;;20.05;45.63;100074.97;4934943;28;101256;-78
2023/06/02 00:38:59;;;;;;;10.43;4.78;;;;;;;19.97;45.66;100058.72;4951338;28;97540;-78
2023/06/02 00:41:25;;;;;;;12.40;4.50;;;;;;;19.98;45.98;100072.88;4931974;28;97558;-77
2023/06/02 00:43:51;;;;;;;11.07;4.10;;;;;;;19.95;46.07;100075.78;4947158;28;96898;-79
2023/06/02 00:46:17;;;;;;;9.60;4.13;;;;;;;19.89;46.04;100069.94;4945625;28;97620;-77
2023/06/02 00:48:43;;;;;;;9.77;5.13;;;;;;;19.90;46.14;100070.81;4962132;28;98060;-78
2023/06/02 00:51:09;;;;;;;7.53;4.85;;;;;;;19.85;46.08;100078.31;4926975;28;97891;-78
2023/06/02 00:53:35;;;;;;;13.45;5.10;;;;;;;19.84;46.11;100074.81;4936935;28;97512;-78
2023/06/02 00:56:02;;;;;;;8.07;4.80;;;;;;;19.76;46.14;100069.22;4954226;28;98219;-78
2023/06/02 00:58:28;;;;;;;10.05;5.18;;;;;;;19.77;46.40;100078.88;4951736;28;98405;-78
2023/06/02 01:00:54;;;;;;;7.90;4.22;;;;;;;19.72;46.43;100072.22;4943558;28;96774;-84
2023/06/02 01:03:21;;;;;;;12.25;4.82;;;;;;;19.60;46.41;100064.16;4957713;28;96848;-80
2023/06/02 01:05:47;;;;;;;11.48;4.82;;;;;;;19.65;46.59;100082.47;4934519;28;101816;-78
2023/06/02 01:08:15;;;;;;;10.48;5.35;;;;;;;19.61;46.62;100076.53;4950183;28;101530;-81
2023/06/02 01:10:41;;;;;;;7.90;4.60;;;;;;;19.40;46.69;100041.72;4947772;28;97761;-77
2023/06/02 01:13:06;;;;;;;13.65;5.90;;;;;;;19.54;46.69;100077.94;4953861;28;96942;-77
2023/06/02 01:15:32;;;;;;;7.72;4.97;;;;;;;19.55;46.91;100084.97;4937408;28;101327;-77
2023/06/02 01:17:59;;;;;;;13.90;5.07;;;;;;;19.50;46.87;100081.78;4944103;28;98025;-79
2023/06/02 01:20:25;;;;;;;10.57;5.10;;;;;;;19.47;47.09;100076.69;4952950;28;97219;-78
2023/06/02 01:23:08;;;;;;;14.05;5.68;;;;;;;19.34;46.74;100066.09;4932554;28;97017;-79
2023/06/02 01:25:36;;;;;;;9.13;5.05;;;;;;;19.40;47.03;100084.31;4945882;28;101812;-78
2023/06/02 01:28:02;;;;;;;10.63;5.38;;;;;;;19.44;46.93;100096.41;4939086;28;101367;-77
2023/06/02 01:30:28;;;;;;;9.38;5.28;;;;;;;19.36;46.93;100081.97;4948433;28;96739;-83
2023/06/02 01:33:15;;;;;;;12.65;5.03;;;;;;;19.30;47.06;100079.78;4941452;28;97265;-77
2023/06/02 01:35:57;;;;;;;9.93;5.47;;;;;;;19.16;47.05;100057.69;4951724;28;101294;-77
2023/06/02 01:38:24;;;;;;;11.80;4.72;;;;;;;19.28;47.18;100095.00;4935138;28;101576;-77
2023/06/02 01:40:50;;;;;;;12.25;5.65;;;;;;;19.11;47.46;100082.94;4947931;28;97020;-79
2023/06/02 01:43:16;;;;;;;7.07;4.43;;;;;;;19.13;47.25;100081.84;4953508;28;97301;-79
2023/06/02 01:45:42;;;;;;;12.73;5.05;;;;;;;19.12;47.31;100096.13;4950435;28;101707;-78
2023/06/02 01:48:08;;;;;;;10.43;5.22;;;;;;;19.06;47.17;100088.59;4927319;28;101079;-78
2023/06/02 01:50:37;;;;;;;11.02;5.28;;;;;;;19.03;47.42;100083.50;4953114;28;97258;-78
2023/06/02 01:53:03;;;;;;;11.45;5.00;;;;;;;18.99;47.53;100093.53;4940893;28;96910;-79
2023/06/02 01:55:29;;;;;;;9.73;5.28;;;;;;;18.91;47.35;100079.09;4951320;28;101218;-78
2023/06/02 01:57:56;;;;;;;7.25;5.05;;;;;;;18.96;47.58;100092.88;4946877;28;100486;-84
2023/06/02 02:00:22;;;;;;;10.43;4.80;;;;;;;18.82;47.55;100082.38;4970211;28;96919;-79
2023/06/02 02:02:49;;;;;;;9.32;5.10;;;;;;;18.84;47.86;100091.09;4964900;28;97855;-78
2023/06/02 02:05:15;;;;;;;10.02;5.15;;;;;;;18.78;48.01;100101.22;4961745;28;98581;-79
2023/06/02 02:07:45;;;;;;;9.02;5.10;;;;;;;18.60;48.08;100073.28;4954407;28;97177;-81
2023/06/02 02:10:11;;;;;;;15.27;5.53;;;;;;;18.68;48.07;100094.00;4960767;28;97839;-80
2023/06/02 02:12:40;;;;;;;10.15;5.25;;;;;;;18.70;47.95;100103.56;4966297;28;97043;-78
2023/06/02 02:15:07;;;;;;;8.93;4.88;;;;;;;18.62;48.03;100089.13;4925391;28;101553;-78
2023/06/02 02:17:36;;;;;;;7.78;4.32;;;;;;;18.49;47.96;100074.03;4924837;28;101911;-79
2023/06/02 02:20:05;;;;;;;12.73;4.88;;;;;;;18.64;48.11;100111.94;4950101;28;97827;-78
2023/06/02 02:22:32;;;;;;;7.88;4.22;;;;;;;18.59;48.21;100102.59;4945281;28;97510;-80
2023/06/02 02:24:57;;;;;;;9.75;5.30;;;;;;;18.54;48.20;100108.25;4952947;28;98329;-86
2023/06/02 02:27:23;;;;;;;7.45;4.70;;;;;;;18.58;48.06;100116.88;4950178;28;100933;-78
2023/06/02 02:29:49;;;;;;;8.70;4.65;;;;;;;18.42;48.23;100096.69;4951007;28;97138;-78
2023/06/02 02:32:15;;;;;;;10.95;4.68;;;;;;;18.47;48.67;100109.63;4935564;28;97148;-79
2023/06/02 02:34:40;;;;;;;9.50;5.03;;;;;;;18.47;48.35;100105.19;4949382;28;101339;-80
2023/06/02 02:37:10;;;;;;;8.90;4.20;;;;;;;18.30;48.36;100085.13;4951628;28;101578;-80
2023/06/02 02:39:36;;;;;;;8.10;4.72;;;;;;;18.43;48.50;100116.13;4934410;28;96843;-78
2023/06/02 02:42:02;;;;;;;10.48;4.95;;;;;;;18.38;48.70;100111.13;4931228;28;97026;-79
2023/06/02 02:44:28;;;;;;;11.23;5.70;;;;;;;18.30;48.90;100108.19;4939185;28;101515;-78
2023/06/02 02:46:55;;;;;;;12.80;5.43;;;;;;;18.27;48.71;100101.28;4940919;28;100561;-77
2023/06/02 02:49:20;;;;;;;10.07;5.18;;;;;;;18.21;49.12;100100.81;4959868;28;97580;-80
2023/06/02 02:51:46;;;;;;;14.93;5.70;;;;;;;18.24;48.98;100111.25;4947591;28;97692;-81
2023/06/02 02:54:12;;;;;;;11.20;5.40;;;;;;;18.22;49.05;100108.69;4933293;28;101287;-78
2023/06/02 02:56:39;;;;;;;12.45;4.75;;;;;;;18.21;48.89;100112.31;4946280;28;100963;-78
2023/06/02 02:59:05;;;;;;;9.95;4.68;;;;;;;18.16;49.28;100111.78;4935362;28;97319;-78
2023/06/02 03:01:32;;;;;;;10.32;5.22;;;;;;;18.08;49.19;100103.47;4933263;28;97945;-78
2023/06/02 03:03:58;;;;;;;8.93;4.85;;;;;;;18.14;48.94;100113.69;4954534;28;100730;-78
2023/06/02 03:06:31;;;;;;;7.97;4.50;;;;;;;18.09;49.13;100114.03;4949745;28;101642;-78
2023/06/02 03:08:58;;;;;;;11.15;4.82;;;;;;;18.05;49.37;100116.97;4951514;28;97094;-78
2023/06/02 03:11:24;;;;;;;10.95;5.28;;;;;;;18.04;49.46;100113.47;4952795;28;96921;-78
2023/06/02 03:13:50;;;;;;;8.15;4.82;;;;;;;17.99;49.52;100110.28;4952380;28;100738;-79
2023/06/02 03:16:17;;;;;;;14.57;6.28;;;;;;;18.08;49.40;100114.09;4951998;28;100701;-80
2023/06/02 03:18:42;;;;;;;15.55;5.90;;;;;;;18.10;49.28;100118.38;4933377;28;96808;-78
2023/06/02 03:21:09;;;;;;;13.88;5.05;;;;;;;18.11;49.23;100119.22;4942374;28;96862;-78
2023/06/02 03:23:36;;;;;;;10.32;5.32;;;;;;;18.07;49.55;100112.41;4967190;28;98175;-77
2023/06/02 03:26:02;;;;;;;15.73;6.03;;;;;;;18.05;49.36;100115.16;4937565;28;101330;-85
2023/06/02 03:28:28;;;;;;;16.63;6.13;;;;;;;18.08;49.57;100130.88;4926553;28;96839;-78
2023/06/02 03:30:54;;;;;;;16.60;6.25;;;;;;;18.12;49.28;100136.00;4949533;28;97215;-78
2023/06/02 03:33:22;;;;;;;14.20;6.63;;;;;;;18.12;49.42;100128.88;4925447;28;101324;-81
2023/06/02 03:35:48;;;;;;;11.55;5.70;;;;;;;18.00;49.71;100127.91;4933109;28;101925;-78
2023/06/02 03:38:14;;;;;;;12.20;6.18;;;;;;;18.14;49.51;100139.41;4951440;28;97436;-82
2023/06/02 03:40:39;;;;;;;12.32;6.95;;;;;;;18.10;49.54;100136.97;4952356;28;97543;-78
2023/06/02 03:43:05;;;;;;;18.05;6.72;;;;;;;18.10;49.37;100136.97;4950568;28;98041;-78
2023/06/02 03:45:31;;;;;;;11.35;6.32;;;;;;;18.13;49.35;100141.22;4942545;28;98653;-78
2023/06/02 03:47:56;;;;;;;11.95;6.03;;;;;;;18.17;49.38;100141.84;4957265;28;96893;-78
2023/06/02 03:50:22;;;;;;;15.43;6.93;;;;;;;18.19;49.26;100137.28;4946121;28;97301;-83
2023/06/02 03:52:48;;;;;;;16.75;7.75;;;;;;;18.26;49.18;100141.22;4926289;28;101808;-78
2023/06/02 03:55:14;;;;;;;13.85;6.55;;;;;;;18.37;49.05;100151.09;4949833;28;100290;-78
2023/06/02 03:57:42;;;;;;;13.38;7.10;;;;;;;18.32;49.67;100154.06;4941818;28;96783;-80
2023/06/02 04:00:10;;;;;;;15.88;6.78;;;;;;;18.18;49.37;100123.16;4949144;28;97000;-78
2023/06/02 04:02:44;;;;;;;16.13;7.43;;;;;;;18.41;49.23;100161.41;4953544;28;98220;-78
2023/06/02 04:05:14;;;;;;;11.60;7.07;;;;;;;18.40;49.30;100154.41;4943241;28;101618;-78
2023/06/02 04:07:41;;;;;;;12.27;6.45;;;;;;;18.45;49.38;100151.44;4961719;28;96845;-80
2023/06/02 04:10:08;;;;;;;14.23;6.45;;;;;;;18.32;49.54;100123.06;4942969;28;96953;-78
2023/06/02 04:12:33;;;;;;;14.27;7.10;;;;;;;18.32;49.56;100128.38;4950892;28;100982;-80
2023/06/02 04:15:00;;;;;;;19.20;7.15;;;;;;;18.37;49.54;100127.19;4967282;28;97937;-78
2023/06/02 04:17:25;;;;;;;19.55;6.85;;;;;;;18.46;49.28;100150.47;4945269;28;96829;-78
2023/06/02 04:19:55;;;;;;;15.60;7.72;;;;;;;18.50;49.79;100152.81;4952947;28;96909;-79
2023/06/02 04:22:21;;;;;;;12.00;6.82;;;;;;;18.54;49.23;100154.28;4964856;28;101094;-79
2023/06/02 04:24:46;;;;;;;14.88;6.57;;;;;;;18.57;49.46;100153.22;4942307;28;99011;-81
2023/06/02 04:27:16;;;;;;;15.02;6.47;;;;;;;18.65;49.43;100158.03;4940213;28;97194;-78
2023/06/02 04:29:43;;;;;;;15.65;6.88;;;;;;;18.54;49.40;100142.81;4931041;28;97223;-80
2023/06/02 04:32:10;;;;;;;18.15;6.68;;;;;;;18.72;49.55;100172.56;4953147;28;100733;-78
2023/06/02 04:34:35;;;;;;;17.45;6.63;;;;;;;18.77;49.54;100173.97;4951703;28;101826;-78
2023/06/02 04:37:02;;;;;;;13.07;6.38;;;;;;;18.80;49.91;100172.91;4950699;28;96743;-81
2023/06/02 04:39:28;;;;;;;21.20;7.43;;;;;;;18.79;49.81;100168.53;4952035;28;97181;-78
2023/06/02 04:41:57;;;;;;;21.73;6.72;;;;;;;18.70;49.68;100150.53;4948918;28;101139;-78
2023/06/02 04:44:24;;;;;;;16.17;6.82;;;;;;;18.83;49.53;100171.84;4948272;28;101474;-78
2023/06/02 04:46:50;;;;;;;13.57;5.97;;;;;;;18.68;49.50;100144.50;4949379;28;97359;-79
2023/06/02 04:49:17;;;;;;;19.40;6.28;;;;;;;18.84;49.35;100160.25;4929972;28;96991;-80
2023/06/02 04:51:44;;;;;;;12.40;6.00;;;;;;;18.97;49.29;100180.56;4934181;28;102108;-78
2023/06/02 04:54:10;;;;;;;12.82;6.25;;;;;;;19.08;48.89;100181.56;4924631;28;101235;-78
2023/06/02 04:56:36;;;;;;;16.67;5.85;;;;;;;19.14;48.87;100173.16;4919356;28;97502;-78
2023/06/02 04:59:03;;;;;;;20.50;6.43;;;;;;;19.29;48.48;100179.22;4951203;28;96915;-78
2023/06/02 05:01:29;;;;;;;15.63;6.60;;;;;;;19.35;48.20;100168.94;4944471;28;100951;-78
2023/06/02 05:03:55;;;;;;;16.88;5.55;;;;;;;19.29;48.05;100145.47;4943399;28;100878;-78
2023/06/02 05:06:21;;;;;;;13.13;4.78;;;;;;;19.68;47.66;100173.63;4938809;28;97439;-77
2023/06/02 05:08:47;;;;;;;18.15;5.15;;;;;;;19.98;46.98;100182.94;4961138;28;97373;-78
2023/06/02 05:11:12;;;;;;;16.77;4.95;;;;;;;20.53;46.37;100177.91;4942019;28;101617;-78
2023/06/02 05:13:38;;;;;;;13.40;4.57;;;;;;;21.05;44.73;100173.78;4924686;28;101744;-75
2023/06/02 05:16:04;;;;;;;16.77;4.65;;;;;;;21.53;44.21;100167.31;4931637;28;98331;-76
2023/06/02 05:18:30;;;;;;;17.50;5.05;;;;;;;21.81;43.92;100188.06;4941230;28;97398;-74
2023/06/02 05:20:57;;;;;;;12.10;5.47;;;;;;;22.33;42.71;100186.38;4931655;28;101616;-78
2023/06/02 05:23:23;;;;;;;12.02;5.32;;;;;;;22.68;41.70;100174.47;4954047;28;101455;-79
2023/06/02 05:25:50;;;;;;;18.75;5.43;;;;;;;23.01;41.23;100184.09;4950853;28;97116;-78
2023/06/02 05:28:15;;;;;;;13.48;4.45;;;;;;;23.05;41.17;100182.84;4950877;28;96927;-76
2023/06/02 05:30:42;;;;;;;10.43;4.00;;;;;;;23.07;40.94;100179.16;4946777;28;101029;-75
2023/06/02 05:33:07;;;;;;;7.60;4.28;;;;;;;23.13;40.94;100189.34;4937340;28;98331;-83
2023/06/02 05:35:34;;;;;;;9.73;4.63;;;;;;;23.29;40.69;100184.31;4935505;28;97261;-75
2023/06/02 05:38:00;;;;;;;6.70;3.40;;;;;;;23.57;40.09;100187.19;4939883;28;97383;-76
2023/06/02 05:40:25;;;;;;;8.00;3.97;;;;;;;23.97;39.34;100171.03;4959657;28;101409;-76
2023/06/02 05:42:51;;;;;;;11.00;3.42;;;;;;;24.63;38.55;100187.13;4951344;28;101333;-74
2023/06/02 05:45:17;;;;;;;14.15;3.70;;;;;;;25.43;37.38;100182.13;4932589;28;97295;-75
2023/06/02 05:47:46;;;;;;;13.30;2.92;;;;;;;26.62;35.95;100184.53;4943427;28;96918;-79
2023/06/02 05:50:12;;;;;;;10.18;2.85;;;;;;;27.95;33.64;100182.97;4943074;28;101214;-78
2023/06/02 05:52:38;;;;;;;8.43;2.80;;;;;;;29.46;31.31;100183.13;4949785;28;101113;-79
2023/06/02 05:55:06;;;;;;;11.77;3.80;;;;;;;31.86;28.49;100168.59;4937752;28;96890;-82
2023/06/02 05:57:31;;;;;;;14.10;3.40;;;;;;;35.23;24.40;100149.81;4940205;28;96748;-82
2023/06/02 05:59:57;;;;;;;13.95;3.33;;;;;;;37.99;21.55;100150.13;4929912;28;101151;-83
2023/06/02 06:02:22;;;;;;;4.22;2.20;;;;;;;40.43;19.53;100149.75;4944206;28;101432;-83
2023/06/02 06:04:49;;;;;;;8.30;2.85;;;;;;;42.23;17.93;100142.34;4942404;28;97282;-83
2023/06/02 06:07:15;;;;;;;10.20;3.33;;;;;;;43.47;16.93;100134.34;4960963;28;97328;-82
2023/06/02 06:09:41;;;;;;;8.88;2.90;;;;;;;44.61;16.00;100139.53;4927828;28;101428;-83
2023/06/02 06:12:07;;;;;;;6.30;2.60;;;;;;;45.72;15.10;100147.50;4932677;28;100792;-85
2023/06/02 06:14:33;;;;;;;9.77;3.05;;;;;;;46.35;14.79;100140.31;4944935;28;97472;-84
2023/06/02 06:16:59;;;;;;;7.25;3.05;;;;;;;47.25;14.42;100138.63;4932414;28;96847;-83
2023/06/02 06:19:24;;;;;;;6.78;2.30;;;;;;;45.02;14.93;100147.66;4943511;28;97497;-83
2023/06/02 06:21:50;;;;;;;6.50;2.83;;;;;;;48.08;13.19;100142.53;4948160;28;100192;-84
2023/06/02 06:24:16;;;;;;;9.98;3.30;;;;;;;49.07;12.45;100143.06;4951412;28;97387;-83
2023/06/02 06:26:43;;;;;;;8.05;3.15;;;;;;;44.82;14.79;100129.22;4952228;28;98034;-82
2023/06/02 06:29:09;;;;;;;7.10;2.65;;;;;;;46.71;14.25;100140.72;4951561;28;101338;-83
2023/06/02 06:31:35;;;;;;;8.27;3.40;;;;;;;49.41;12.24;100153.72;4947990;28;101206;-81
2023/06/02 06:34:02;;;;;;;5.35;2.90;;;;;;;50.86;11.80;100139.22;4924456;28;97502;-84
2023/06/02 06:36:28;;;;;;;5.70;2.30;;;;;;;51.56;11.59;100145.69;4926551;28;96938;-83
2023/06/02 06:38:54;;;;;;;4.38;2.65;;;;;;;52.21;10.69;100140.94;4931617;28;101411;-80
2023/06/02 06:41:20;;;;;;;4.47;2.05;;;;;;;52.72;10.59;100144.66;4956699;28;101271;-81
2023/06/02 06:43:46;;;;;;;7.30;3.20;;;;;;;49.17;12.28;100152.03;4948519;28;97021;-81
2023/06/02 06:46:15;;;;;;;;;;;;;;;52.49;10.69;100155.31;4932707;28;98003;-81
2023/06/02 06:48:41;;;;;;;5.40;2.65;;;;;;;53.34;10.09;100145.88;4947420;28;100841;-80
2023/06/02 06:51:06;;;;;;;8.07;3.03;;;;;;;53.19;10.30;100149.28;4947185;28;98240;-81
2023/06/02 06:53:32;;;;;;;4.82;2.67;;;;;;;50.48;11.58;100150.13;4964207;28;96773;-81
2023/06/02 06:55:59;;;;;;;4.93;2.97;;;;;;;53.53;10.04;100155.75;4935557;28;97085;-80
2023/06/02 06:58:25;;;;;;;4.70;2.80;;;;;;;54.46;9.50;100148.59;4968766;28;102469;-82
2023/06/02 07:00:50;;;;;;;7.28;3.42;;;;;;;55.08;8.93;100154.16;4953905;28;101342;-82
2023/06/02 07:03:16;;;;;;;6.97;3.35;;;;;;;55.75;9.24;100155.28;4940499;28;97332;-81
2023/06/02 07:05:43;;;;;;;6.47;3.40;;;;;;;55.40;9.03;100160.75;4957226;28;97418;-81
2023/06/02 07:08:09;;;;;;;9.35;3.45;;;;;;;53.12;10.31;100168.59;4940554;28;101946;-81
2023/06/02 07:10:34;;;;;;;6.70;3.40;;;;;;;55.77;8.89;100164.19;4944327;28;98037;-82
2023/06/02 07:13:00;;;;;;;9.90;2.75;;;;;;;50.88;11.17;100155.66;4944981;28;97229;-81
2023/06/02 07:15:25;;;;;;;5.10;3.10;;;;;;;50.64;11.27;100150.50;4947113;28;97971;-81
2023/06/02 07:17:51;;;;;;;4.82;2.53;;;;;;;52.05;10.61;100168.66;4981461;28;97416;-81
2023/06/02 07:20:16;;;;;;;3.97;2.95;;;;;;;53.66;9.99;100165.88;4954824;28;97411;-79
2023/06/02 07:22:42;;;;;;;5.13;3.08;;;;;;;55.09;9.14;100167.84;4948355;28;97173;-81
2023/06/02 07:25:08;;;;;;;5.82;2.88;;;;;;;52.88;10.17;100160.88;4958945;28;97221;-84
2023/06/02 07:27:33;;;;;;;7.78;2.70;;;;;;;50.99;10.73;100170.16;4947157;28;98757;-84
2023/06/02 07:29:59;;;;;;;5.03;2.45;;;;;;;52.28;10.27;100176.81;4938531;28;97342;-85
2023/06/02 07:32:25;;;;;;;8.52;3.35;;;;;;;51.90;10.55;100169.19;4953270;28;96827;-86
2023/06/02 07:34:51;;;;;;;5.68;2.70;;;;;;;51.38;10.84;100172.03;4953163;28;97149;-86
2023/06/02 07:37:16;;;;;;;9.57;2.88;;;;;;;52.33;10.62;100175.81;4943879;28;101327;-86
2023/06/02 07:39:42;;;;;;;5.30;3.63;;;;;;;51.60;10.61;100169.03;4964380;28;97598;-82
2023/06/02 07:42:08;;;;;;;4.97;3.28;;;;;;;52.53;10.12;100163.84;4952891;28;97160;-82
2023/06/02 07:44:33;;;;;;;7.82;4.30;;;;;;;49.34;11.64;100179.25;4948495;28;97395;-83
2023/06/02 07:46:59;;;;;;;7.15;3.50;;;;;;;45.09;13.92;100175.03;4958750;28;97972;-83
2023/06/02 07:49:25;;;;;;;5.82;2.85;;;;;;;40.35;17.47;100200.53;4956048;28;97797;-83
2023/06/02 07:51:50;;;;;;;5.47;3.05;;;;;;;36.94;20.04;100214.25;4936124;28;98576;-83
2023/06/02 07:54:16;;;;;;;6.15;2.97;;;;;;;37.40;19.04;100199.19;4933218;28;96993;-82
2023/06/02 07:56:42;;;;;;;6.25;2.78;;;;;;;34.97;21.68;100208.00;4929813;28;100763;-82
2023/06/02 07:59:11;;;;;;;5.93;2.42;;;;;;;36.63;19.84;100212.50;4954169;28;97447;-82
2023/06/02 08:01:40;;;;;;;11.18;2.80;;;;;;;33.22;23.72;100209.91;4933451;28;97036;-83
2023/06/02 08:04:05;;;;;;;5.28;2.83;;;;;;;42.75;15.90;100207.81;4941797;28;98105;-83
2023/06/02 08:06:31;;;;;;;5.50;3.03;;;;;;;41.36;16.38;100194.72;4949317;28;101460;-81
2023/06/02 08:08:58;;;;;;;7.38;3.45;;;;;;;46.63;13.50;100210.72;4952320;28;101519;-81
2023/06/02 08:11:24;;;;;;;4.60;3.08;;;;;;;48.26;12.36;100202.88;4947555;28;98266;-81
2023/06/02 08:13:50;;;;;;;7.65;3.55;;;;;;;50.18;11.41;100207.56;4940934;28;96983;-83
2023/06/02 08:16:15;;;;;;;7.13;3.20;;;;;;;45.96;13.72;100178.09;4947435;28;99442;-82
2023/06/02 08:18:41;;;;;;;6.32;2.70;;;;;;;40.92;16.77;100205.75;4967396;28;97430;-82
2023/06/02 08:21:06;;;;;;;6.80;2.78;;;;;;;41.39;16.63;100182.38;4950748;28;96798;-83
2023/06/02 08:23:32;;;;;;;5.90;2.67;;;;;;;43.83;15.16;100203.47;4936850;28;97264;-82
2023/06/02 08:25:58;;;;;;;7.22;2.53;;;;;;;45.71;13.65;100206.84;4941600;28;97489;-82
2023/06/02 08:28:25;;;;;;;7.20;3.30;;;;;;;45.88;13.89;100188.94;4961892;28;97516;-82
2023/06/02 08:30:51;;;;;;;5.43;2.65;;;;;;;41.77;16.13;100206.19;4938216;28;98048;-83
2023/06/02 08:33:18;;;;;;;4.97;2.70;;;;;;;38.08;19.09;100219.09;4944864;28;97427;-86
2023/06/02 08:35:46;;;;;;;7.47;2.65;;;;;;;37.57;19.45;100215.84;4934907;28;102410;-84
2023/06/02 08:38:16;;;;;;;7.75;2.60;;;;;;;38.83;18.30;100200.06;4938214;28;97659;-82
2023/06/02 08:40:42;;;;;;;9.48;2.67;;;;;;;38.52;19.03;100208.66;4945752;28;97075;-82
2023/06/02 08:43:09;;;;;;;5.80;2.65;;;;;;;38.56;19.14;100213.44;4959905;28;97491;-85
2023/06/02 08:45:35;;;;;;;10.02;2.92;;;;;;;37.95;20.66;100218.25;4936791;28;101218;-85
2023/06/02 08:48:03;;;;;;;10.05;2.92;;;;;;;36.92;20.39;100208.19;4947525;28;97410;-85
2023/06/02 08:50:32;;;;;;;8.67;3.03;;;;;;;35.87;21.87;100224.41;4956420;28;97553;-85
2023/06/02 08:53:02;;;;;;;8.77;3.23;;;;;;;34.96;22.22;100214.53;4962747;28;96844;-85
2023/06/02 08:55:28;;;;;;;12.85;3.92;;;;;;;34.63;22.32;100219.00;4953768;28;102253;-85
2023/06/02 08:57:54;;;;;;;10.23;3.20;;;;;;;33.81;23.29;100225.63;4940085;28;101372;-85
2023/06/02 09:00:20;;;;;;;15.02;3.90;;;;;;;33.69;23.38;100228.13;4925473;28;97441;-86
2023/06/02 09:02:47;;;;;;;7.72;2.63;;;;;;;34.02;23.58;100224.63;4945092;28;97322;-86
2023/06/02 09:05:16;;;;;;;7.80;2.80;;;;;;;33.71;24.75;100214.28;4935637;28;101619;-85
2023/06/02 09:07:46;;;;;;;8.65;2.70;;;;;;;33.25;23.59;100229.41;4945487;28;98190;-86
2023/06/02 09:10:27;;;;;;;;;;;;;;;32.87;23.92;100237.09;4923105;28;97757;-85
2023/06/02 09:12:53;;;;;;;5.72;2.65;;;;;;;32.29;24.24;100222.84;4948794;28;97288;-85
2023/06/02 09:15:19;;;;;;;5.82;2.55;;;;;;;32.81;24.55;100233.31;4943256;28;101032;-86
2023/06/02 09:17:44;;;;;;;7.75;3.00;;;;;;;32.84;25.20;100235.66;4945122;28;101416;-85
2023/06/02 09:20:11;;;;;;;13.70;3.03;;;;;;;32.15;25.28;100236.34;4934828;28;97619;-86
2023/06/02 09:22:53;;;;;;;9.30;3.80;;;;;;;31.85;25.67;100241.00;4946327;28;97695;-86
2023/06/02 09:25:27;;;;;;;9.07;3.10;;;;;;;31.42;25.88;100224.69;4955820;28;101750;-87
2023/06/02 09:27:54;;;;;;;8.25;3.60;;;;;;;30.96;25.82;100224.88;4948349;28;101251;-85
2023/06/02 09:30:20;;;;;;;15.88;3.38;;;;;;;30.59;26.47;100240.16;4952325;28;97447;-87
2023/06/02 09:32:53;;;;;;;7.78;3.03;;;;;;;29.52;27.50;100236.50;4941190;28;97093;-88
2023/06/02 09:35:40;;;;;;;7.30;3.15;;;;;;;29.41;28.11;100247.69;4935237;28;102260;-89
2023/06/02 09:38:14;;;;;;;12.02;3.97;;;;;;;29.17;28.50;100252.19;4923118;28;100990;-85
2023/06/02 09:40:40;;;;;;;11.65;3.30;;;;;;;29.11;28.09;100253.72;4955030;28;97301;-85
2023/06/02 09:43:08;;;;;;;12.13;3.80;;;;;;;29.35;27.88;100268.16;4953110;28;96921;-87
2023/06/02 09:46:00;;;;;;;8.75;2.83;;;;;;;29.96;28.19;100271.94;4922710;28;101778;-85
2023/06/02 09:48:29;;;;;;;9.85;3.53;;;;;;;29.87;27.42;100258.63;4938053;28;101059;-85
2023/06/02 09:50:55;;;;;;;6.57;2.65;;;;;;;29.93;27.97;100256.06;4951548;28;97455;-86
2023/06/02 09:53:22;;;;;;;9.02;3.50;;;;;;;30.00;27.26;100248.91;4936426;28;97282;-87
2023/06/02 09:55:49;;;;;;;5.45;2.85;;;;;;;29.95;27.93;100235.06;4944215;28;102698;-85
2023/06/02 09:58:14;;;;;;;9.20;3.13;;;;;;;29.70;28.42;100268.72;4933402;28;101267;-88
2023/06/02 10:00:40;;;;;;;12.23;4.30;;;;;;;29.32;28.51;100265.81;4951528;28;97326;-87
2023/06/02 10:03:06;;;;;;;7.57;2.90;;;;;;;29.00;28.20;100250.53;4949170;28;97519;-88
2023/06/02 10:05:33;;;;;;;9.80;3.95;;;;;;;29.34;28.68;100259.22;4947825;28;101654;-88
2023/06/02 10:08:11;;;;;;;9.95;3.50;;;;;;;29.77;28.81;100267.00;4949475;28;101566;-88
2023/06/02 10:10:56;;;;;;;12.85;3.70;;;;;;;29.50;27.78;100260.19;4935162;28;96772;-88
2023/06/02 10:13:22;;;;;;;12.18;3.60;;;;;;;29.19;28.12;100260.97;4942622;28;97893;-88
2023/06/02 10:16:34;;;;;;;9.43;4.03;;;;;;;29.04;28.02;100228.44;4968132;28;101602;-88
2023/06/02 10:19:18;;;;;;;11.65;3.33;;;;;;;29.49;27.69;100256.63;4953630;28;101774;-88
2023/06/02 10:22:12;;;;;;;9.95;3.55;;;;;;;28.78;27.98;100252.97;4962195;28;97227;-88
2023/06/02 10:24:56;;;;;;;15.32;4.32;;;;;;;28.30;28.67;100273.53;4966108;28;97284;-88
2023/06/02 10:27:23;;;;;;;22.83;4.40;;;;;;;28.01;29.00;100265.94;4921323;28;101840;-87
2023/06/02 10:29:53;;;;;;;9.30;3.15;;;;;;;28.17;29.17;100249.78;4927428;28;101642;-88
2023/06/02 10:32:33;;;;;;;12.67;3.70;;;;;;;28.05;29.15;100270.00;4932501;28;97329;-87
2023/06/02 10:34:59;;;;;;;6.17;2.77;;;;;;;27.99;29.09;100244.53;4944721;28;97278;-87
2023/06/02 10:37:26;;;;;;;8.23;3.00;;;;;;;27.83;29.25;100265.22;4951059;28;101580;-86
2023/06/02 10:39:53;;;;;;;13.80;3.60;;;;;;;27.74;29.64;100277.81;4949653;28;101723;-86
2023/06/02 10:42:21;;;;;;;12.05;3.20;;;;;;;27.68;29.78;100256.91;4938257;28;97178;-85
2023/06/02 10:44:47;;;;;;;11.68;3.05;;;;;;;27.64;30.05;100259.09;4939967;28;96922;-85
2023/06/02 10:47:18;;;;;;;9.32;3.05;;;;;;;27.65;30.38;100276.94;4952102;28;98419;-85
2023/06/02 10:49:54;;;;;;;8.93;3.53;;;;;;;27.66;30.93;100275.09;4950694;28;101823;-85
2023/06/02 10:52:21;;;;;;;10.27;2.95;;;;;;;27.50;30.88;100286.69;4936888;28;97446;-86
2023/06/02 10:55:08;;;;;;;8.52;3.10;;;;;;;27.49;30.95;100275.06;4930595;28;97054;-85
2023/06/02 10:58:05;;;;;;;11.52;3.00;;;;;;;27.67;30.59;100282.19;4957275;28;97860;-85
2023/06/02 11:00:39;;;;;;;10.57;2.70;;;;;;;27.26;31.06;100272.09;4948016;28;101793;-86
2023/06/02 11:03:28;;;;;;;8.93;2.95;;;;;;;27.01;31.41;100273.78;4946695;28;98280;-85
2023/06/02 11:06:19;;;;;;;12.57;3.03;;;;;;;26.74;31.86;100282.03;4921728;28;97525;-85
2023/06/02 11:08:46;;;;;;;8.38;2.78;;;;;;;26.62;31.41;100279.59;4932238;28;101518;-85
2023/06/02 11:11:11;;;;;;;13.68;3.70;;;;;;;26.55;32.05;100289.28;4931815;28;101874;-84
2023/06/02 11:14:03;;;;;;;8.65;3.40;;;;;;;26.08;32.68;100283.28;4921553;28;97160;-84
2023/06/02 11:16:29;;;;;;;11.80;3.53;;;;;;;26.19;32.73;100286.59;4936148;28;97430;-85
2023/06/02 11:18:54;;;;;;;18.63;3.47;;;;;;;26.27;32.29;100279.59;4923681;28;100021;-87
2023/06/02 11:21:21;;;;;;;21.77;3.80;;;;;;;26.29;32.80;100293.75;4957759;28;97538;-86
2023/06/02 11:23:47;;;;;;;8.57;2.95;;;;;;;26.52;32.33;100297.66;4936861;28;97068;-87